sensor_id;sensor_type;location;lat;lon;timestamp;P1;durP1;ratioP1;P2;durP2;ratioP2
27275;SDS011;14772;47.398;8.080;2022-11-02T00:00:29;13.73;;;4.70;;
27275;SDS011;14772;47.398;8.080;2022-11-02T00:05:28;15.20;;;4.93;;
27275;SDS011;14772;47.398;8.080;2022-11-02T00:10:26;14.33;;;5.00;;
27275;SDS011;14772;47.398;8.080;2022-11-02T00:15:27;17.07;;;6.90;;
27275;SDS011;14772;47.398;8.080;2022-11-02T00:20:26;16.73;;;6.47;;
27275;SDS011;14772;47.398;8.080;2022-11-02T00:25:25;15.50;;;4.90;;
27275;SDS011;14772;47.398;8.080;2022-11-02T00:30:25;13.77;;;4.43;;
27275;SDS011;14772;47.398;8.080;2022-11-02T00:35:23;15.67;;;5.10;;
27275;SDS011;14772;47.398;8.080;2022-11-02T00:40:22;16.23;;;4.50;;
27275;SDS011;14772;47.398;8.080;2022-11-02T00:45:20;13.53;;;4.50;;
27275;SDS011;14772;47.398;8.080;2022-11-02T00:50:19;13.53;;;4.90;;
27275;SDS011;14772;47.398;8.080;2022-11-02T00:55:18;12.80;;;4.83;;
27275;SDS011;14772;47.398;8.080;2022-11-02T01:00:16;13.30;;;4.60;;
27275;SDS011;14772;47.398;8.080;2022-11-02T01:05:15;16.93;;;4.77;;
27275;SDS011;14772;47.398;8.080;2022-11-02T01:10:14;16.07;;;4.97;;
27275;SDS011;14772;47.398;8.080;2022-11-02T01:15:13;12.40;;;4.53;;
27275;SDS011;14772;47.398;8.080;2022-11-02T01:20:12;15.03;;;4.47;;
27275;SDS011;14772;47.398;8.080;2022-11-02T01:25:11;15.13;;;4.30;;
27275;SDS011;14772;47.398;8.080;2022-11-02T01:30:10;13.93;;;4.50;;
27275;SDS011;14772;47.398;8.080;2022-11-02T01:35:09;16.20;;;4.13;;
27275;SDS011;14772;47.398;8.080;2022-11-02T01:40:08;13.83;;;3.87;;
27275;SDS011;14772;47.398;8.080;2022-11-02T01:45:09;15.10;;;4.17;;
27275;SDS011;14772;47.398;8.080;2022-11-02T01:50:11;12.10;;;3.80;;
27275;SDS011;14772;47.398;8.080;2022-11-02T01:55:12;13.63;;;4.27;;
27275;SDS011;14772;47.398;8.080;2022-11-02T02:00:14;16.07;;;4.23;;
27275;SDS011;14772;47.398;8.080;2022-11-02T02:05:14;15.30;;;4.27;;
27275;SDS011;14772;47.398;8.080;2022-11-02T02:10:14;14.73;;;4.30;;
27275;SDS011;14772;47.398;8.080;2022-11-02T02:31:58;15.20;;;4.33;;
27275;SDS011;14772;47.398;8.080;2022-11-02T02:37:15;13.17;;;4.43;;
27275;SDS011;14772;47.398;8.080;2022-11-02T02:42:32;14.40;;;4.27;;
27275;SDS011;14772;47.398;8.080;2022-11-02T02:47:57;15.07;;;4.20;;
27275;SDS011;14772;47.398;8.080;2022-11-02T02:53:10;13.90;;;3.83;;
27275;SDS011;14772;47.398;8.080;2022-11-02T02:58:23;12.63;;;4.00;;
27275;SDS011;14772;47.398;8.080;2022-11-02T03:03:32;14.50;;;4.17;;
27275;SDS011;14772;47.398;8.080;2022-11-02T03:08:38;16.20;;;4.50;;
27275;SDS011;14772;47.398;8.080;2022-11-02T03:13:41;15.60;;;4.30;;
27275;SDS011;14772;47.398;8.080;2022-11-02T03:18:45;12.57;;;4.30;;
27275;SDS011;14772;47.398;8.080;2022-11-02T03:23:47;13.27;;;4.10;;
27275;SDS011;14772;47.398;8.080;2022-11-02T03:28:51;13.93;;;4.03;;
27275;SDS011;14772;47.398;8.080;2022-11-02T03:33:55;11.60;;;4.00;;
27275;SDS011;14772;47.398;8.080;2022-11-02T03:38:56;14.83;;;4.27;;
27275;SDS011;14772;47.398;8.080;2022-11-02T03:43:58;13.30;;;4.77;;
27275;SDS011;14772;47.398;8.080;2022-11-02T03:49:01;14.90;;;4.73;;
27275;SDS011;14772;47.398;8.080;2022-11-02T03:54:04;14.47;;;4.50;;
27275;SDS011;14772;47.398;8.080;2022-11-02T03:59:07;15.77;;;4.77;;
27275;SDS011;14772;47.398;8.080;2022-11-02T04:04:06;13.00;;;4.80;;
27275;SDS011;14772;47.398;8.080;2022-11-02T04:09:05;13.70;;;4.73;;
27275;SDS011;14772;47.398;8.080;2022-11-02T04:14:04;13.03;;;4.33;;
27275;SDS011;14772;47.398;8.080;2022-11-02T04:19:03;15.43;;;4.50;;
27275;SDS011;14772;47.398;8.080;2022-11-02T04:24:04;16.37;;;4.50;;
27275;SDS011;14772;47.398;8.080;2022-11-02T04:29:04;17.40;;;4.87;;
27275;SDS011;14772;47.398;8.080;2022-11-02T04:34:03;14.70;;;4.70;;
27275;SDS011;14772;47.398;8.080;2022-11-02T04:39:15;17.77;;;4.50;;
27275;SDS011;14772;47.398;8.080;2022-11-02T04:44:21;12.03;;;4.13;;
27275;SDS011;14772;47.398;8.080;2022-11-02T04:49:20;13.03;;;4.50;;
27275;SDS011;14772;47.398;8.080;2022-11-02T04:54:18;12.37;;;4.40;;
27275;SDS011;14772;47.398;8.080;2022-11-02T04:59:17;13.77;;;4.47;;
27275;SDS011;14772;47.398;8.080;2022-11-02T05:04:16;11.90;;;4.10;;
27275;SDS011;14772;47.398;8.080;2022-11-02T05:09:15;14.67;;;4.40;;
27275;SDS011;14772;47.398;8.080;2022-11-02T05:14:13;15.63;;;4.87;;
27275;SDS011;14772;47.398;8.080;2022-11-02T05:19:12;12.53;;;4.93;;
27275;SDS011;14772;47.398;8.080;2022-11-02T05:24:10;12.70;;;4.77;;
27275;SDS011;14772;47.398;8.080;2022-11-02T05:29:09;13.83;;;5.40;;
27275;SDS011;14772;47.398;8.080;2022-11-02T05:34:20;16.23;;;5.60;;
27275;SDS011;14772;47.398;8.080;2022-11-02T05:39:25;13.70;;;4.90;;
27275;SDS011;14772;47.398;8.080;2022-11-02T05:44:38;14.13;;;5.07;;
27275;SDS011;14772;47.398;8.080;2022-11-02T05:49:36;14.80;;;5.27;;
27275;SDS011;14772;47.398;8.080;2022-11-02T05:54:39;14.37;;;5.50;;
27275;SDS011;14772;47.398;8.080;2022-11-02T05:59:39;15.17;;;5.60;;
27275;SDS011;14772;47.398;8.080;2022-11-02T06:04:37;18.13;;;6.30;;
27275;SDS011;14772;47.398;8.080;2022-11-02T06:09:35;19.40;;;6.13;;
27275;SDS011;14772;47.398;8.080;2022-11-02T06:14:33;15.13;;;5.10;;
27275;SDS011;14772;47.398;8.080;2022-11-02T06:19:52;13.67;;;4.60;;
27275;SDS011;14772;47.398;8.080;2022-11-02T06:24:56;13.43;;;5.00;;
27275;SDS011;14772;47.398;8.080;2022-11-02T06:29:54;12.50;;;4.77;;
27275;SDS011;14772;47.398;8.080;2022-11-02T06:34:52;16.40;;;5.13;;
27275;SDS011;14772;47.398;8.080;2022-11-02T06:39:50;15.00;;;4.70;;
27275;SDS011;14772;47.398;8.080;2022-11-02T06:44:48;13.83;;;5.60;;
27275;SDS011;14772;47.398;8.080;2022-11-02T06:49:47;18.03;;;7.20;;
27275;SDS011;14772;47.398;8.080;2022-11-02T06:54:46;15.73;;;6.70;;
27275;SDS011;14772;47.398;8.080;2022-11-02T06:59:44;16.43;;;5.90;;
27275;SDS011;14772;47.398;8.080;2022-11-02T07:04:42;16.53;;;5.80;;
27275;SDS011;14772;47.398;8.080;2022-11-02T07:09:40;15.47;;;5.60;;
27275;SDS011;14772;47.398;8.080;2022-11-02T16:31:27;13.07;;;3.13;;
27275;SDS011;14772;47.398;8.080;2022-11-02T16:47:59;14.93;;;3.63;;
27275;SDS011;14772;47.398;8.080;2022-11-02T16:53:55;19.00;;;4.30;;
27275;SDS011;14772;47.398;8.080;2022-11-02T17:05:03;15.63;;;3.90;;
27275;SDS011;14772;47.398;8.080;2022-11-02T17:10:41;17.20;;;3.97;;
27275;SDS011;14772;47.398;8.080;2022-11-02T18:22:10;15.93;;;4.33;;
27275;SDS011;14772;47.398;8.080;2022-11-02T20:23:30;17.93;;;6.77;;
27275;SDS011;14772;47.398;8.080;2022-11-02T22:07:18;17.93;;;6.87;;
27275;SDS011;14772;47.398;8.080;2022-11-02T22:12:17;17.23;;;6.60;;
27275;SDS011;14772;47.398;8.080;2022-11-02T22:17:17;15.27;;;6.50;;
